createdAt,value
2019-03-21T00:02:00.206Z,11.50
2019-03-21T00:04:52.353Z,10.67
2019-03-21T00:07:40.654Z,11.97
2019-03-21T00:11:25.749Z,10.60
2019-03-21T00:14:28.701Z,11.37
2019-03-21T00:17:19.156Z,10.97
2019-03-21T00:20:11.022Z,10.70
2019-03-21T00:23:00.403Z,11.00
2019-03-21T00:25:49.407Z,11.80
2019-03-21T00:28:38.348Z,11.30
2019-03-21T00:31:26.887Z,11.43
2019-03-21T00:34:15.516Z,11.00
2019-03-21T00:37:03.963Z,12.00
2019-03-21T00:39:52.074Z,11.67
2019-03-21T00:42:40.824Z,12.10
2019-03-21T00:45:29.511Z,11.50
2019-03-21T00:48:19.647Z,12.17
2019-03-21T00:51:07.935Z,11.90
2019-03-21T00:53:56.004Z,12.10
2019-03-21T00:56:44.227Z,13.03
2019-03-21T00:59:32.340Z,12.47
2019-03-21T01:02:20.455Z,14.33
2019-03-21T01:05:10.100Z,19.00
2019-03-21T01:07:59.164Z,18.80
2019-03-21T01:10:48.396Z,15.37
2019-03-21T01:13:37.266Z,13.80
2019-03-21T01:16:26.002Z,13.67
2019-03-21T01:19:14.151Z,14.03
2019-03-21T01:22:02.756Z,14.07
2019-03-21T01:24:51.486Z,12.77
2019-03-21T01:27:40.318Z,13.23
2019-03-21T01:30:28.491Z,13.03
2019-03-21T01:33:16.985Z,13.20
2019-03-21T01:36:05.384Z,12.97
2019-03-21T01:38:54.342Z,12.27
2019-03-21T01:41:44.132Z,13.50
2019-03-21T01:44:40.483Z,13.50
2019-03-21T01:47:22.903Z,12.37
2019-03-21T01:50:12.125Z,11.80
2019-03-21T01:53:00.732Z,12.90
2019-03-21T01:55:49.767Z,11.50
2019-03-21T01:58:38.579Z,11.87
2019-03-21T02:01:28.018Z,12.90
2019-03-21T02:04:16.515Z,13.40
2019-03-21T02:07:05.224Z,13.20
2019-03-21T02:09:53.687Z,13.20
2019-03-21T02:12:42.443Z,12.70
2019-03-21T02:15:31.591Z,13.77
2019-03-21T02:18:20.355Z,13.10
2019-03-21T02:21:08.841Z,15.83
2019-03-21T02:23:58.002Z,15.33
2019-03-21T02:26:46.655Z,15.80
2019-03-21T02:29:35.463Z,14.33
2019-03-21T02:32:24.507Z,15.30
2019-03-21T02:35:13.267Z,14.47
2019-03-21T02:38:02.155Z,13.33
2019-03-21T02:40:51.223Z,15.73
2019-03-21T02:43:40.393Z,15.43
2019-03-21T02:46:29.248Z,14.30
2019-03-21T02:49:18.382Z,14.93
2019-03-21T02:52:07.387Z,13.77
2019-03-21T02:54:55.688Z,13.93
2019-03-21T02:57:44.481Z,14.00
2019-03-21T03:00:33.976Z,13.30
2019-03-21T03:03:22.224Z,13.70
2019-03-21T03:06:10.727Z,14.90
2019-03-21T03:08:59.690Z,14.50
2019-03-21T03:11:48.221Z,16.23
2019-03-21T03:14:36.362Z,13.93
2019-03-21T03:17:25.386Z,14.10
2019-03-21T03:20:15.102Z,13.80
2019-03-21T03:23:03.787Z,15.40
2019-03-21T03:25:52.377Z,14.57
2019-03-21T03:28:41.442Z,14.40
2019-03-21T03:31:30.338Z,13.47
2019-03-21T03:34:19.135Z,14.03
2019-03-21T03:37:07.143Z,14.70
2019-03-21T03:39:55.464Z,13.97
2019-03-21T03:42:44.850Z,14.20
2019-03-21T03:45:37.872Z,13.87
2019-03-21T03:48:24.423Z,15.70
2019-03-21T03:51:13.186Z,13.87
2019-03-21T03:54:01.520Z,15.10
2019-03-21T03:56:50.629Z,14.13
2019-03-21T03:59:39.951Z,14.43
2019-03-21T04:02:28.533Z,15.70
2019-03-21T04:05:17.537Z,15.40
2019-03-21T04:08:06.168Z,14.37
2019-03-21T04:10:55.257Z,15.10
2019-03-21T04:13:44.123Z,14.37
2019-03-21T04:16:32.588Z,14.93
2019-03-21T04:19:21.400Z,15.30
2019-03-21T04:22:09.771Z,14.93
2019-03-21T04:24:58.711Z,14.37
2019-03-21T04:27:47.149Z,14.63
2019-03-21T04:30:36.075Z,14.07
2019-03-21T04:33:24.503Z,14.67
2019-03-21T04:36:12.999Z,16.17
2019-03-21T04:39:01.570Z,14.10
2019-03-21T04:41:49.689Z,15.70
2019-03-21T04:44:37.762Z,15.83
2019-03-21T04:47:26.028Z,14.87
2019-03-21T04:50:17.976Z,15.23
2019-03-21T04:53:06.732Z,16.00
2019-03-21T04:55:55.424Z,15.30
2019-03-21T04:58:43.722Z,15.00
2019-03-21T05:01:31.786Z,16.33
2019-03-21T05:04:19.924Z,15.63
2019-03-21T05:07:08.313Z,14.90
2019-03-21T05:09:56.595Z,14.47
2019-03-21T05:12:46.035Z,15.43
2019-03-21T05:15:36.939Z,16.43
2019-03-21T05:18:29.174Z,14.77
2019-03-21T05:21:17.702Z,16.57
2019-03-21T05:24:06.473Z,18.03
2019-03-21T05:26:55.103Z,17.37
2019-03-21T05:29:43.858Z,17.63
2019-03-21T05:32:33.048Z,18.00
2019-03-21T05:35:22.300Z,16.63
2019-03-21T05:38:11.195Z,17.30
2019-03-21T05:40:59.515Z,17.87
2019-03-21T05:43:57.422Z,16.43
2019-03-21T05:46:45.523Z,15.97
2019-03-21T05:49:34.377Z,17.87
2019-03-21T05:52:22.427Z,16.67
2019-03-21T05:55:11.391Z,19.80
2019-03-21T05:58:00.500Z,19.10
2019-03-21T06:00:51.385Z,19.47
2019-03-21T06:03:50.735Z,18.77
2019-03-21T06:06:43.828Z,17.30
2019-03-21T06:09:32.184Z,18.70
2019-03-21T06:12:21.427Z,18.97
2019-03-21T06:15:10.950Z,17.97
2019-03-21T06:18:38.071Z,17.93
2019-03-21T06:21:33.857Z,19.63
2019-03-21T06:24:40.488Z,19.17
2019-03-21T06:27:28.080Z,19.60
2019-03-21T06:30:17.027Z,18.73
2019-03-21T06:33:05.892Z,18.77
2019-03-21T06:35:54.640Z,19.33
2019-03-21T06:38:44.094Z,19.77
2019-03-21T06:41:32.766Z,20.33
2019-03-21T06:44:21.431Z,19.33
2019-03-21T06:47:10.195Z,19.00
2019-03-21T06:49:59.115Z,20.23
2019-03-21T06:52:47.643Z,18.73
2019-03-21T06:55:36.208Z,19.10
2019-03-21T06:58:24.268Z,19.53
2019-03-21T07:01:13.075Z,20.80
2019-03-21T07:04:07.040Z,20.10
2019-03-21T07:06:51.472Z,20.20
2019-03-21T07:09:40.464Z,19.17
2019-03-21T07:12:29.160Z,21.23
2019-03-21T07:15:17.497Z,19.20
2019-03-21T07:18:06.537Z,21.73
2019-03-21T07:20:55.870Z,19.10
2019-03-21T07:23:45.248Z,20.63
2019-03-21T07:26:34.271Z,19.47
2019-03-21T07:29:22.944Z,20.83
2019-03-21T07:32:12.057Z,18.83
2019-03-21T07:35:01.997Z,19.87
2019-03-21T07:37:50.503Z,19.43
2019-03-21T07:40:39.286Z,20.20
2019-03-21T07:43:28.031Z,21.37
2019-03-21T07:46:16.775Z,19.70
2019-03-21T07:49:06.082Z,22.10
2019-03-21T07:51:54.865Z,23.87
2019-03-21T07:54:43.051Z,24.13
2019-03-21T07:57:31.647Z,25.33
2019-03-21T08:00:20.316Z,23.80
2019-03-21T08:03:09.183Z,23.50
2019-03-21T08:05:57.709Z,23.33
2019-03-21T08:08:46.307Z,23.10
2019-03-21T08:11:34.867Z,24.87
2019-03-21T08:14:23.788Z,22.40
2019-03-21T08:17:12.279Z,24.87
2019-03-21T08:20:00.727Z,21.57
2019-03-21T08:22:49.472Z,23.83
2019-03-21T08:25:38.283Z,23.57
2019-03-21T08:28:27.195Z,24.20
2019-03-21T08:31:17.163Z,23.83
2019-03-21T08:34:06.039Z,23.00
2019-03-21T08:36:54.962Z,23.63
2019-03-21T08:39:43.030Z,24.00
2019-03-21T08:42:32.044Z,23.97
2019-03-21T08:45:20.738Z,24.17
2019-03-21T08:48:09.283Z,23.63
2019-03-21T08:51:07.680Z,23.10
2019-03-21T08:53:48.169Z,23.13
2019-03-21T08:56:37.166Z,24.30
2019-03-21T08:59:25.695Z,24.97
2019-03-21T09:02:14.586Z,24.33
2019-03-21T09:05:03.709Z,23.20
2019-03-21T09:07:51.960Z,24.00
2019-03-21T09:10:40.552Z,21.40
2019-03-21T09:13:29.827Z,20.97
2019-03-21T09:16:19.258Z,19.53
2019-03-21T09:19:07.694Z,19.07
2019-03-21T09:21:56.706Z,18.60
2019-03-21T09:24:45.239Z,16.10
2019-03-21T09:27:33.638Z,20.33
2019-03-21T09:30:23.332Z,18.63
2019-03-21T09:33:11.695Z,19.20
2019-03-21T09:36:00.947Z,19.10
2019-03-21T09:38:57.064Z,19.30
2019-03-21T09:41:45.716Z,16.60
2019-03-21T09:44:34.485Z,17.07
2019-03-21T09:47:23.150Z,16.37
2019-03-21T09:50:12.709Z,17.10
2019-03-21T09:53:01.490Z,15.77
2019-03-21T09:55:50.591Z,15.80
2019-03-21T09:58:38.807Z,17.37
2019-03-21T10:01:28.000Z,16.80
2019-03-21T10:04:17.381Z,16.80
2019-03-21T10:07:06.884Z,19.10
2019-03-21T10:09:55.486Z,19.20
2019-03-21T10:12:44.214Z,17.40
2019-03-21T10:15:32.664Z,18.03
2019-03-21T10:18:21.721Z,17.63
2019-03-21T10:21:11.154Z,17.40
2019-03-21T10:23:59.975Z,16.00
2019-03-21T10:26:48.850Z,17.83
2019-03-21T10:29:37.327Z,18.90
2019-03-21T10:32:26.645Z,19.87
2019-03-21T10:35:16.063Z,19.27
2019-03-21T10:38:21.065Z,19.63
2019-03-21T10:41:09.920Z,20.05
2019-03-21T10:43:58.069Z,18.40
2019-03-21T10:46:46.904Z,19.17
2019-03-21T10:49:36.307Z,20.20
2019-03-21T10:52:25.056Z,18.20
2019-03-21T10:55:14.424Z,16.00
2019-03-21T10:58:07.774Z,12.70
2019-03-21T11:00:54.545Z,11.97
2019-03-21T11:03:43.084Z,11.87
2019-03-21T11:06:31.945Z,14.43
2019-03-21T11:09:21.495Z,11.50
2019-03-21T11:12:10.376Z,15.17
2019-03-21T11:14:58.595Z,15.23
2019-03-21T11:17:47.264Z,17.10
2019-03-21T11:20:40.037Z,16.30
2019-03-21T11:23:28.706Z,14.43
2019-03-21T11:26:17.124Z,14.77
2019-03-21T11:29:06.545Z,13.73
2019-03-21T11:31:55.250Z,15.05
2019-03-21T11:34:43.318Z,12.10
2019-03-21T11:37:32.285Z,12.37
2019-03-21T11:40:20.807Z,14.25
2019-03-21T11:43:12.428Z,15.68
2019-03-21T11:46:01.874Z,12.70
2019-03-21T11:48:50.197Z,14.00
2019-03-21T11:51:38.640Z,11.95
2019-03-21T11:54:26.743Z,12.45
2019-03-21T11:57:15.916Z,13.03
2019-03-21T12:00:05.127Z,11.30
2019-03-21T12:02:53.569Z,11.53
2019-03-21T12:05:42.438Z,11.97
2019-03-21T12:08:31.042Z,10.08
2019-03-21T12:11:21.295Z,9.58
2019-03-21T12:14:10.713Z,10.75
2019-03-21T12:16:59.176Z,12.63
2019-03-21T12:19:47.635Z,12.75
2019-03-21T12:22:36.208Z,11.68
2019-03-21T12:25:25.349Z,11.78
2019-03-21T12:28:14.387Z,13.10
2019-03-21T12:31:03.181Z,10.72
2019-03-21T12:33:52.702Z,11.70
2019-03-21T12:36:41.396Z,12.03
2019-03-21T12:39:30.748Z,11.45
2019-03-21T12:42:20.249Z,10.60
2019-03-21T12:45:09.399Z,11.28
2019-03-21T12:47:58.392Z,9.75
2019-03-21T12:50:46.443Z,10.32
2019-03-21T12:53:34.800Z,10.20
2019-03-21T12:56:23.810Z,9.55
2019-03-21T12:59:12.920Z,9.35
2019-03-21T13:02:01.882Z,9.80
2019-03-21T13:04:50.460Z,9.73
2019-03-21T13:07:39.040Z,9.63
2019-03-21T13:10:28.170Z,9.83
2019-03-21T13:13:17.044Z,9.58
2019-03-21T13:16:06.051Z,9.73
2019-03-21T13:18:55.555Z,9.85
2019-03-21T13:21:43.830Z,9.43
2019-03-21T13:24:32.370Z,11.25
2019-03-21T13:27:21.398Z,10.82
2019-03-21T13:30:10.532Z,10.80
2019-03-21T13:32:59.896Z,10.03
2019-03-21T13:35:48.562Z,10.30
2019-03-21T13:38:37.104Z,10.72
2019-03-21T13:41:26.011Z,10.75
2019-03-21T13:44:14.091Z,11.65
2019-03-21T13:47:02.887Z,9.58
2019-03-21T13:49:51.439Z,11.65
2019-03-21T13:52:40.869Z,12.47
2019-03-21T13:55:29.550Z,17.30
2019-03-21T13:58:18.967Z,13.20
2019-03-21T14:01:07.602Z,12.40
2019-03-21T14:03:57.064Z,13.13
2019-03-21T14:06:45.875Z,11.93
2019-03-21T14:09:34.783Z,10.28
2019-03-21T14:12:24.250Z,10.38
2019-03-21T14:15:13.250Z,11.83
2019-03-21T14:18:01.887Z,11.40
2019-03-21T14:20:50.389Z,10.32
2019-03-21T14:23:43.456Z,10.48
2019-03-21T14:26:29.247Z,9.63
2019-03-21T14:29:17.888Z,10.40
2019-03-21T14:32:06.706Z,10.45
2019-03-21T14:34:55.410Z,9.88
2019-03-21T14:37:43.864Z,12.10
2019-03-21T14:40:32.695Z,10.60
2019-03-21T14:43:21.537Z,11.85
2019-03-21T14:46:10.271Z,11.38
2019-03-21T14:48:59.491Z,12.50
2019-03-21T14:51:48.166Z,12.13
2019-03-21T14:54:36.704Z,11.78
2019-03-21T14:57:25.567Z,11.50
2019-03-21T15:00:16.893Z,11.30
2019-03-21T15:03:05.595Z,10.03
2019-03-21T15:05:54.149Z,10.85
2019-03-21T15:08:42.950Z,10.98
2019-03-21T15:11:31.620Z,11.70
2019-03-21T15:14:20.641Z,10.55
2019-03-21T15:17:09.287Z,11.22
2019-03-21T15:19:58.012Z,11.68
2019-03-21T15:22:46.894Z,10.30
2019-03-21T15:25:35.808Z,12.25
2019-03-21T15:28:24.243Z,11.33
2019-03-21T15:31:12.518Z,13.30
2019-03-21T15:34:00.818Z,11.20
2019-03-21T15:36:50.068Z,11.20
2019-03-21T15:39:38.927Z,11.93
2019-03-21T15:42:27.903Z,11.00
2019-03-21T15:45:22.895Z,9.98
2019-03-21T15:48:07.213Z,9.90
2019-03-21T15:51:04.256Z,9.90
2019-03-21T15:53:54.674Z,11.80
2019-03-21T15:56:36.507Z,10.30
2019-03-21T15:59:25.661Z,11.00
2019-03-21T16:02:14.626Z,11.00
2019-03-21T16:05:02.710Z,11.50
2019-03-21T16:07:51.219Z,12.10
2019-03-21T16:10:40.063Z,10.40
2019-03-21T16:13:28.742Z,10.87
2019-03-21T16:16:17.204Z,10.83
2019-03-21T16:19:06.283Z,10.80
2019-03-21T16:21:54.991Z,11.53
2019-03-21T16:24:43.974Z,11.13
2019-03-21T16:27:32.626Z,11.00
2019-03-21T16:30:20.964Z,11.40
2019-03-21T16:33:09.779Z,10.27
2019-03-21T16:35:59.009Z,11.57
2019-03-21T16:38:47.699Z,10.73
2019-03-21T16:41:36.520Z,10.97
2019-03-21T16:44:25.002Z,11.10
2019-03-21T16:47:13.467Z,11.90
2019-03-21T16:50:02.445Z,11.63
2019-03-21T16:52:51.512Z,12.83
2019-03-21T16:55:40.559Z,11.20
2019-03-21T16:58:29.387Z,10.93
2019-03-21T17:01:17.921Z,11.77
2019-03-21T17:04:06.671Z,10.70
2019-03-21T17:06:55.936Z,12.40
2019-03-21T17:09:45.212Z,11.80
2019-03-21T17:12:34.131Z,12.10
2019-03-21T17:15:23.158Z,11.20
2019-03-21T17:18:11.877Z,11.97
2019-03-21T17:21:00.656Z,11.50
2019-03-21T17:23:49.846Z,11.40
2019-03-21T17:26:40.075Z,11.97
2019-03-21T17:29:29.107Z,11.67
2019-03-21T17:32:17.650Z,11.10
2019-03-21T17:35:07.177Z,10.67
2019-03-21T17:37:55.927Z,11.30
2019-03-21T17:40:44.444Z,11.83
2019-03-21T17:43:33.610Z,13.43
2019-03-21T17:46:22.073Z,13.77
2019-03-21T17:49:10.816Z,15.53
2019-03-21T17:52:00.032Z,15.40
2019-03-21T17:54:48.440Z,17.03
2019-03-21T17:57:37.114Z,16.40
2019-03-21T18:00:26.974Z,17.87
2019-03-21T18:03:17.225Z,18.10
2019-03-21T18:06:05.420Z,18.80
2019-03-21T18:08:53.530Z,20.37
2019-03-21T18:11:42.843Z,21.60
2019-03-21T18:14:31.612Z,20.50
2019-03-21T18:17:20.286Z,22.17
2019-03-21T18:20:08.468Z,21.70
2019-03-21T18:22:57.695Z,20.60
2019-03-21T18:25:46.631Z,22.23
2019-03-21T18:28:35.055Z,21.03
2019-03-21T18:31:24.016Z,22.80
2019-03-21T18:34:12.711Z,22.37
2019-03-21T18:37:01.814Z,23.57
2019-03-21T18:39:51.281Z,24.27
2019-03-21T18:42:40.578Z,22.70
2019-03-21T18:45:29.163Z,23.17
2019-03-21T18:48:18.111Z,22.63
2019-03-21T18:51:07.026Z,22.83
2019-03-21T18:53:55.748Z,24.70
2019-03-21T18:56:44.116Z,24.30
2019-03-21T18:59:32.672Z,22.00
2019-03-21T19:02:21.132Z,21.70
2019-03-21T19:05:10.045Z,21.00
2019-03-21T19:07:58.510Z,21.83
2019-03-21T19:10:46.547Z,22.17
2019-03-21T19:13:35.777Z,23.47
2019-03-21T19:16:24.832Z,22.63
2019-03-21T19:19:13.152Z,24.47
2019-03-21T19:22:01.398Z,24.03
2019-03-21T19:24:49.909Z,21.33
2019-03-21T19:27:38.859Z,24.50
2019-03-21T19:30:27.541Z,25.17
2019-03-21T19:33:18.368Z,25.97
2019-03-21T19:36:06.452Z,25.90
2019-03-21T19:38:55.348Z,25.03
2019-03-21T19:41:44.378Z,27.00
2019-03-21T19:44:32.696Z,26.20
2019-03-21T19:47:24.919Z,27.57
2019-03-21T19:50:12.086Z,26.13
2019-03-21T19:53:01.231Z,26.00
2019-03-21T19:55:50.673Z,27.70
2019-03-21T19:58:39.376Z,26.30
2019-03-21T20:01:28.120Z,26.60
2019-03-21T20:04:17.151Z,23.60
2019-03-21T20:07:06.367Z,28.80
2019-03-21T20:09:55.012Z,27.63
2019-03-21T20:12:44.152Z,27.30
2019-03-21T20:15:32.284Z,26.40
2019-03-21T20:18:20.398Z,27.07
2019-03-21T20:21:09.498Z,29.80
2019-03-21T20:23:58.182Z,31.53
2019-03-21T20:26:53.083Z,27.10
2019-03-21T20:29:41.619Z,27.70
2019-03-21T20:32:30.888Z,28.33
2019-03-21T20:35:19.395Z,27.10
2019-03-21T20:38:08.079Z,26.80
2019-03-21T20:40:56.439Z,27.60
2019-03-21T20:43:45.512Z,28.00
2019-03-21T20:46:35.054Z,28.20
2019-03-21T20:49:24.358Z,29.77
2019-03-21T20:52:13.229Z,31.40
2019-03-21T20:55:02.850Z,31.83
2019-03-21T20:57:51.925Z,31.50
2019-03-21T21:00:40.482Z,32.57
2019-03-21T21:03:29.147Z,31.50
2019-03-21T21:06:17.750Z,29.03
2019-03-21T21:09:08.106Z,27.70
2019-03-21T21:11:56.531Z,28.53
2019-03-21T21:14:45.485Z,28.13
2019-03-21T21:17:34.568Z,25.23
2019-03-21T21:20:23.320Z,23.63
2019-03-21T21:23:12.309Z,24.67
2019-03-21T21:26:05.367Z,24.57
2019-03-21T21:28:51.226Z,25.27
2019-03-21T21:31:39.291Z,23.67
2019-03-21T21:34:28.061Z,25.00
2019-03-21T21:37:16.099Z,23.07
2019-03-21T21:40:04.963Z,24.70
2019-03-21T21:42:54.166Z,24.43
2019-03-21T21:45:43.209Z,24.13
2019-03-21T21:48:32.240Z,23.43
2019-03-21T21:51:21.493Z,24.47
2019-03-21T21:54:09.839Z,25.53
2019-03-21T21:56:58.723Z,25.87
2019-03-21T21:59:47.427Z,25.23
2019-03-21T22:02:36.076Z,26.20
2019-03-21T22:05:25.023Z,25.33
2019-03-21T22:08:13.601Z,26.07
2019-03-21T22:11:02.687Z,25.90
2019-03-21T22:13:51.650Z,26.70
2019-03-21T22:16:40.298Z,26.33
2019-03-21T22:19:28.847Z,28.90
2019-03-21T22:22:19.325Z,29.80
2019-03-21T22:25:08.771Z,30.90
2019-03-21T22:27:57.860Z,29.10
2019-03-21T22:30:46.252Z,30.10
2019-03-21T22:33:34.318Z,32.10
2019-03-21T22:36:22.347Z,30.67
2019-03-21T22:39:11.344Z,29.37
2019-03-21T22:42:02.994Z,29.00
2019-03-21T22:44:51.610Z,30.43
2019-03-21T22:47:40.365Z,29.73
2019-03-21T22:50:28.682Z,30.50
2019-03-21T22:53:16.804Z,31.10
2019-03-21T22:56:05.732Z,29.53
2019-03-21T22:58:54.841Z,31.57
2019-03-21T23:01:43.263Z,32.47
2019-03-21T23:04:32.271Z,34.10
2019-03-21T23:07:20.974Z,34.60
2019-03-21T23:10:10.091Z,31.47
2019-03-21T23:12:59.011Z,31.33
2019-03-21T23:15:47.835Z,33.40
2019-03-21T23:18:36.142Z,31.47
2019-03-21T23:21:24.670Z,33.20
2019-03-21T23:24:13.722Z,32.00
2019-03-21T23:27:03.167Z,31.20
2019-03-21T23:29:51.557Z,32.57
2019-03-21T23:32:39.912Z,32.17
2019-03-21T23:35:28.932Z,31.60
2019-03-21T23:38:18.248Z,29.17
2019-03-21T23:41:08.400Z,32.07
2019-03-21T23:43:57.030Z,33.73
2019-03-21T23:46:45.641Z,31.90
2019-03-21T23:49:34.091Z,33.20
2019-03-21T23:52:22.439Z,33.53
2019-03-21T23:55:11.895Z,35.13
2019-03-21T23:58:00.387Z,34.10
